Time;durP1;ratioP1;P1;durP2;ratioP2;P2;SDS_P1;SDS_P2;PMS_P1;PMS_P2;Temp;Humidity;BMP_temperature;BMP_pressure;BME280_temperature;BME280_humidity;BME280_pressure;Samples;Min_cycle;Max_cycle;Signal;HPM_P1;HPM_P2
2022/11/25 00:00:16;;;;;;;14.27;7.18;;;;;;;0.22;100.00;98461.22;4194096;28;20036;-76
2022/11/25 00:02:17;;;;;;;17.67;7.80;;;;;;;0.19;100.00;98459.13;4200569;28;20035;-74
2022/11/25 00:04:17;;;;;;;12.68;6.68;;;;;;;0.18;100.00;98456.72;4199602;28;20032;-74
2022/11/25 00:06:23;;;;;;;12.10;5.10;;;;;;;0.10;100.00;98449.31;4195088;28;20086;-75
2022/11/25 00:08:24;;;;;;;9.73;5.63;;;;;;;0.02;100.00;98448.16;4200824;28;20515;-74
2022/11/25 00:10:24;;;;;;;12.45;4.97;;;;;;;-0.07;100.00;98441.84;4198573;28;20103;-74
2022/11/25 00:12:24;;;;;;;9.88;5.07;;;;;;;-0.18;100.00;98448.63;4199496;28;20503;-76
2022/11/25 00:14:25;;;;;;;9.55;4.57;;;;;;;-0.28;100.00;98442.31;4201222;28;20044;-76
2022/11/25 00:16:25;;;;;;;8.75;4.80;;;;;;;-0.33;100.00;98445.16;4200738;28;20092;-76
2022/11/25 00:18:25;;;;;;;7.75;3.90;;;;;;;-0.37;100.00;98437.91;4200301;28;20059;-76
2022/11/25 00:20:26;;;;;;;9.48;4.72;;;;;;;-0.36;100.00;98448.47;4201370;28;20602;-75
2022/11/25 00:22:26;;;;;;;7.13;4.00;;;;;;;-0.41;100.00;98448.63;4200592;28;20165;-75
2022/11/25 00:24:27;;;;;;;11.25;5.13;;;;;;;-0.36;100.00;98443.03;4200873;28;20123;-76
2022/11/25 00:26:31;;;;;;;9.27;4.47;;;;;;;-0.35;100.00;98439.22;4199201;28;20044;-75
2022/11/25 00:28:31;;;;;;;16.02;7.82;;;;;;;-0.41;100.00;98443.19;4200034;28;20050;-76
2022/11/25 00:30:32;;;;;;;14.57;7.00;;;;;;;-0.36;100.00;98442.25;4197725;28;20143;-76
2022/11/25 00:32:32;;;;;;;14.98;7.68;;;;;;;-0.38;100.00;98442.56;4199860;28;20109;-76
2022/11/25 00:34:32;;;;;;;15.10;7.70;;;;;;;-0.28;100.00;98450.47;4201069;28;20637;-76
2022/11/25 00:36:36;;;;;;;16.58;8.52;;;;;;;-0.30;100.00;98446.47;4201004;28;20551;-76
2022/11/25 00:38:36;;;;;;;12.00;6.68;;;;;;;-0.29;100.00;98448.88;4200952;28;20101;-75
2022/11/25 00:40:37;;;;;;;16.73;7.50;;;;;;;-0.33;100.00;98452.53;4200709;28;20040;-76
2022/11/25 00:44:56;;;;;;;18.65;9.68;;;;;;;-0.48;100.00;98452.88;4200915;28;20074;-75
2022/11/25 00:46:57;;;;;;;21.92;9.50;;;;;;;-0.44;100.00;98449.22;4200550;28;20134;-75
2022/11/25 00:48:57;;;;;;;19.92;9.55;;;;;;;-0.45;100.00;98460.38;4199371;28;20043;-75
2022/11/25 00:50:57;;;;;;;18.30;9.57;;;;;;;-0.47;100.00;98457.97;4200357;28;20146;-75
2022/11/25 00:52:58;;;;;;;20.98;10.52;;;;;;;-0.46;100.00;98445.19;4198792;28;20053;-75
2022/11/25 00:54:58;;;;;;;18.95;10.90;;;;;;;-0.38;100.00;98441.75;4200904;28;20063;-75
2022/11/25 00:56:59;;;;;;;20.08;9.90;;;;;;;-0.42;100.00;98441.53;4200848;28;20361;-75
2022/11/25 00:58:59;;;;;;;22.73;11.02;;;;;;;-0.48;100.00;98444.72;4200474;28;20036;-75
2022/11/25 01:01:03;;;;;;;19.10;10.10;;;;;;;-0.55;100.00;98455.19;4200801;28;20048;-75
2022/11/25 01:03:03;;;;;;;20.20;9.48;;;;;;;-0.64;100.00;98453.19;4198957;28;20088;-74
2022/11/25 01:05:03;;;;;;;22.90;10.55;;;;;;;-0.63;100.00;98454.00;4200315;28;20126;-75
2022/11/25 01:07:04;;;;;;;21.65;9.70;;;;;;;-0.51;100.00;98448.03;4200665;28;20527;-75
2022/11/25 01:09:07;;;;;;;20.85;8.98;;;;;;;-0.49;100.00;98451.25;4203097;28;20415;-75
2022/11/25 01:11:11;;;;;;;18.30;9.65;;;;;;;-0.48;100.00;98442.78;4201597;28;20032;-75
2022/11/25 01:13:11;;;;;;;25.52;10.07;;;;;;;-0.43;100.00;98452.72;4202845;28;20374;-75
2022/11/25 01:15:11;;;;;;;18.27;8.93;;;;;;;-0.37;100.00;98455.03;4203460;28;20036;-75
2022/11/25 01:17:12;;;;;;;16.25;8.27;;;;;;;-0.38;100.00;98450.72;4202373;28;20036;-75
2022/11/25 01:19:13;;;;;;;12.52;6.45;;;;;;;-0.33;100.00;98444.38;4200533;28;20093;-75
2022/11/25 01:21:22;;;;;;;12.95;6.20;;;;;;;-0.30;100.00;98447.25;4202581;28;20442;-75
2022/11/25 01:23:23;;;;;;;13.45;5.82;;;;;;;-0.29;100.00;98448.88;4202659;28;20127;-74
2022/11/25 01:25:23;;;;;;;10.80;5.53;;;;;;;-0.24;100.00;98437.06;4201914;28;20511;-75
2022/11/25 01:27:23;;;;;;;11.70;5.97;;;;;;;-0.26;100.00;98452.06;4204150;28;20082;-75
2022/11/25 01:29:24;;;;;;;14.13;5.47;;;;;;;-0.28;100.00;98444.22;4203308;28;20075;-75
2022/11/25 01:31:27;;;;;;;10.05;5.55;;;;;;;-0.40;100.00;98436.63;4203709;28;20141;-75
2022/11/25 01:33:28;;;;;;;9.45;5.32;;;;;;;-0.35;100.00;98441.13;4200792;28;20503;-75
2022/11/25 01:35:29;;;;;;;13.85;6.05;;;;;;;-0.31;100.00;98444.84;4203498;28;20239;-75
2022/11/25 01:37:29;;;;;;;9.10;5.15;;;;;;;-0.31;100.00;98439.41;4201126;28;20032;-75
2022/11/25 01:39:29;;;;;;;12.48;6.47;;;;;;;-0.30;100.00;98441.03;4202637;28;20047;-75
2022/11/25 01:41:32;;;;;;;11.40;5.88;;;;;;;-0.31;100.00;98442.94;4203765;28;20040;-75
2022/11/25 01:43:32;;;;;;;8.57;5.45;;;;;;;-0.39;100.00;98453.75;4202643;28;20040;-75
2022/11/25 01:45:35;;;;;;;10.07;5.32;;;;;;;-0.48;100.00;98440.06;4203520;28;20048;-75
2022/11/25 01:47:36;;;;;;;9.38;5.20;;;;;;;-0.57;100.00;98448.16;4203763;28;20082;-75
2022/11/25 01:49:48;;;;;;;9.77;5.07;;;;;;;-0.55;100.00;98450.56;4204033;28;20274;-75
2022/11/25 01:51:54;;;;;;;8.98;5.03;;;;;;;-0.60;100.00;98446.03;4203363;28;20044;-75
2022/11/25 01:54:00;;;;;;;9.95;5.40;;;;;;;-0.60;100.00;98443.31;4198504;28;20468;-74
2022/11/25 01:56:02;;;;;;;8.30;3.92;;;;;;;-0.64;100.00;98444.25;4202706;28;20086;-75
2022/11/25 01:58:11;;;;;;;9.32;4.90;;;;;;;-0.74;100.00;98442.56;4203130;28;20352;-75
2022/11/25 02:00:12;;;;;;;9.25;4.90;;;;;;;-0.79;100.00;98450.00;4201219;28;20125;-75
2022/11/25 02:02:14;;;;;;;9.32;4.57;;;;;;;-0.91;100.00;98434.19;4203404;28;20124;-75
2022/11/25 02:04:16;;;;;;;11.15;4.82;;;;;;;-0.99;100.00;98430.31;4200970;28;20067;-75
2022/11/25 02:06:24;;;;;;;7.35;4.40;;;;;;;-1.02;100.00;98436.34;4203120;28;20073;-75
2022/11/25 02:08:25;;;;;;;14.48;4.60;;;;;;;-1.02;100.00;98428.19;4203120;28;20378;-75
2022/11/25 02:10:29;;;;;;;9.02;4.28;;;;;;;-0.97;100.00;98430.00;4202811;28;20538;-75
2022/11/25 02:12:31;;;;;;;10.43;4.05;;;;;;;-1.01;100.00;98429.00;4201835;28;20086;-75
2022/11/25 02:14:31;;;;;;;6.85;4.57;;;;;;;-1.04;100.00;98432.31;4201786;28;20036;-74
2022/11/25 02:16:32;;;;;;;5.78;3.70;;;;;;;-1.04;100.00;98422.25;4202922;28;20044;-75
2022/11/25 02:18:32;;;;;;;9.45;4.47;;;;;;;-1.00;100.00;98425.97;4202887;28;20051;-75
2022/11/25 02:20:32;;;;;;;12.10;4.88;;;;;;;-1.00;100.00;98428.69;4201794;28;20040;-75
2022/11/25 02:22:48;;;;;;;7.63;4.20;;;;;;;-0.94;100.00;98422.03;4201547;28;20040;-75
2022/11/25 02:24:53;;;;;;;7.22;3.95;;;;;;;-0.90;100.00;98414.91;4198932;28;20048;-75
2022/11/25 02:26:54;;;;;;;6.47;4.07;;;;;;;-0.91;100.00;98421.47;4202377;28;20072;-75
2022/11/25 02:28:54;;;;;;;7.40;4.40;;;;;;;-0.92;100.00;98416.31;4201936;28;20086;-75
2022/11/25 02:30:56;;;;;;;8.70;4.53;;;;;;;-0.86;100.00;98413.19;4203004;28;20032;-75
2022/11/25 02:32:57;;;;;;;8.20;4.60;;;;;;;-0.84;100.00;98415.59;4202746;28;20129;-75
2022/11/25 02:34:58;;;;;;;6.93;4.23;;;;;;;-0.83;100.00;98413.66;4203309;28;20562;-75
2022/11/25 02:36:59;;;;;;;8.60;5.00;;;;;;;-0.86;100.00;98423.25;4203002;28;20278;-75
2022/11/25 02:39:00;;;;;;;13.65;4.65;;;;;;;-0.88;100.00;98420.03;4202415;28;20455;-74
2022/11/25 02:41:14;;;;;;;9.25;4.80;;;;;;;-0.87;100.00;98418.91;4202505;28;20048;-75
2022/11/25 02:43:15;;;;;;;8.63;4.40;;;;;;;-0.89;100.00;98419.22;4200953;28;20048;-75
2022/11/25 02:45:21;;;;;;;10.65;5.00;;;;;;;-0.83;100.00;98416.38;4203401;28;20047;-75
2022/11/25 02:47:21;;;;;;;6.70;3.90;;;;;;;-0.89;100.00;98418.44;4203672;28;21209;-75
2022/11/25 02:49:22;;;;;;;11.75;4.55;;;;;;;-0.93;100.00;98422.84;4202553;28;20154;-75
2022/11/25 02:51:26;;;;;;;8.45;5.05;;;;;;;-0.97;100.00;98419.16;4203138;28;20123;-74
2022/11/25 02:53:26;;;;;;;9.73;4.43;;;;;;;-1.02;100.00;98413.81;4202139;28;20055;-75
2022/11/25 02:55:26;;;;;;;12.73;5.10;;;;;;;-0.98;100.00;98421.06;4202782;28;20379;-75
2022/11/25 02:57:27;;;;;;;7.90;4.03;;;;;;;-1.00;100.00;98422.44;4203224;28;20500;-75
2022/11/25 02:59:27;;;;;;;7.78;3.88;;;;;;;-1.05;100.00;98422.56;4202004;28;20335;-75
2022/11/25 03:01:30;;;;;;;10.10;4.45;;;;;;;-1.11;100.00;98421.06;4202780;28;20095;-75
2022/11/25 03:03:30;;;;;;;;;;;;;;;-1.08;100.00;98431.31;4201149;28;20484;-75
2022/11/25 03:05:31;;;;;;;6.00;4.28;;;;;;;-1.13;100.00;98416.75;4201583;28;19919;-74
2022/11/25 03:07:31;;;;;;;8.18;4.18;;;;;;;-1.15;100.00;98418.16;4202267;28;20032;-75
2022/11/25 03:09:31;;;;;;;6.47;3.97;;;;;;;-1.20;100.00;98418.25;4201811;28;20488;-74
2022/11/25 03:13:50;;;;;;;7.97;4.38;;;;;;;-1.07;100.00;98420.16;4201413;28;20122;-74
2022/11/25 03:15:51;;;;;;;7.28;4.20;;;;;;;-1.00;100.00;98422.44;4202848;28;20052;-74
2022/11/25 03:17:51;;;;;;;6.65;4.05;;;;;;;-1.06;100.00;98421.78;4202587;28;20055;-74
2022/11/25 03:19:52;;;;;;;7.95;4.60;;;;;;;-1.10;100.00;98425.38;4202317;28;20466;-74
2022/11/25 03:21:52;;;;;;;9.18;4.18;;;;;;;-1.10;100.00;98425.38;4202848;28;20040;-75
2022/11/25 03:23:52;;;;;;;6.55;4.07;;;;;;;-1.11;100.00;98423.78;4201424;28;20050;-74
2022/11/25 03:25:53;;;;;;;5.55;3.80;;;;;;;-1.16;100.00;98424.66;4201901;28;20047;-74
2022/11/25 03:27:53;;;;;;;7.57;4.68;;;;;;;-1.17;100.00;98433.94;4202731;28;20264;-74
2022/11/25 03:29:54;;;;;;;8.80;4.47;;;;;;;-1.22;100.00;98424.00;4202366;28;20094;-74
2022/11/25 03:31:54;;;;;;;13.07;4.47;;;;;;;-1.18;100.00;98424.97;4201098;28;20131;-74
2022/11/25 03:33:54;;;;;;;7.63;3.63;;;;;;;-1.22;100.00;98424.00;4201247;28;20056;-74
2022/11/25 03:35:55;;;;;;;6.05;3.83;;;;;;;-1.29;100.00;98420.06;4202015;28;20578;-74
2022/11/25 03:37:55;;;;;;;8.68;3.53;;;;;;;-1.30;100.00;98421.97;4202332;28;20485;-74
2022/11/25 03:39:56;;;;;;;12.95;4.00;;;;;;;-1.26;100.00;98424.88;4201528;28;20062;-75
2022/11/25 03:41:56;;;;;;;4.78;3.53;;;;;;;-1.26;100.00;98422.97;4202469;28;20056;-74
2022/11/25 03:43:56;;;;;;;8.15;4.30;;;;;;;-1.30;100.00;98416.53;4201469;28;20873;-74
2022/11/25 03:45:56;;;;;;;7.90;4.07;;;;;;;-1.26;100.00;98425.69;4202204;28;20156;-74
2022/11/25 03:47:57;;;;;;;9.07;4.43;;;;;;;-1.25;100.00;98421.84;4202109;28;20081;-74
2022/11/25 03:49:57;;;;;;;5.93;3.42;;;;;;;-1.24;100.00;98420.78;4199674;28;20036;-74
2022/11/25 03:51:58;;;;;;;6.15;3.72;;;;;;;-1.19;100.00;98430.72;4199996;28;20036;-74
2022/11/25 03:53:58;;;;;;;6.53;3.38;;;;;;;-1.26;100.00;98422.97;4200939;28;20044;-74
2022/11/25 03:55:58;;;;;;;7.40;3.67;;;;;;;-1.22;100.00;98434.03;4201959;28;20468;-74
2022/11/25 03:57:59;;;;;;;7.10;4.15;;;;;;;-1.16;100.00;98438.25;4202208;28;20531;-74
2022/11/25 04:00:00;;;;;;;6.85;3.65;;;;;;;-1.15;100.00;98418.16;4201252;28;20109;-74
2022/11/25 04:02:01;;;;;;;6.15;3.38;;;;;;;-1.14;100.00;98426.00;4201829;28;20136;-74
2022/11/25 04:04:01;;;;;;;9.48;4.03;;;;;;;-1.08;100.00;98426.69;4201978;28;20055;-74
2022/11/25 04:06:01;;;;;;;6.53;3.50;;;;;;;-1.07;100.00;98411.22;4202188;28;20023;-74
2022/11/25 04:08:02;;;;;;;8.63;4.18;;;;;;;-1.05;100.00;98414.44;4201641;28;20169;-74
2022/11/25 04:10:02;;;;;;;9.25;4.05;;;;;;;-1.14;100.00;98417.03;4201948;28;20057;-74
2022/11/25 04:14:22;;;;;;;10.27;3.55;;;;;;;-1.10;100.00;98425.38;4201771;28;20643;-74
2022/11/25 04:16:24;;;;;;;7.40;3.92;;;;;;;-1.15;100.00;98421.69;4201571;28;20048;-74
2022/11/25 04:18:25;;;;;;;;;;;;;;;-1.19;100.00;98417.13;4202525;28;20465;-74
2022/11/25 04:20:25;;;;;;;6.38;3.25;;;;;;;-1.26;100.00;98419.44;4201460;28;20015;-74
2022/11/25 04:22:25;;;;;;;6.95;3.60;;;;;;;-1.30;100.00;98413.84;4201059;28;20093;-74
2022/11/25 04:24:26;;;;;;;7.15;3.58;;;;;;;-1.36;100.00;98408.81;4201608;28;20172;-74
2022/11/25 04:26:27;;;;;;;6.35;3.67;;;;;;;-1.39;100.00;98423.78;4201614;28;20115;-74
2022/11/25 04:28:27;;;;;;;9.18;4.00;;;;;;;-1.34;100.00;98429.09;4201899;28;20048;-74
2022/11/25 04:30:27;;;;;;;6.55;3.40;;;;;;;-1.32;100.00;98426.91;4199982;28;20078;-74
2022/11/25 04:32:28;;;;;;;8.20;3.65;;;;;;;-1.30;100.00;98416.53;4201105;28;20110;-74
2022/11/25 04:34:28;;;;;;;8.73;3.92;;;;;;;-1.31;100.00;98422.28;4201752;28;20086;-74
2022/11/25 04:36:28;;;;;;;6.03;3.22;;;;;;;-1.34;100.00;98415.53;4200479;28;20036;-74
2022/11/25 04:38:29;;;;;;;10.98;3.70;;;;;;;-1.39;100.00;98428.41;4201252;28;20714;-74
2022/11/25 04:40:29;;;;;;;5.63;3.53;;;;;;;-1.40;100.00;98418.66;4201250;28;20075;-75
2022/11/25 04:42:33;;;;;;;6.35;3.42;;;;;;;-1.36;100.00;98415.03;4199404;28;20396;-74
2022/11/25 04:44:33;;;;;;;7.60;3.58;;;;;;;-1.46;100.00;98421.47;4202671;28;20131;-74
2022/11/25 04:46:39;;;;;;;7.00;3.47;;;;;;;-1.49;100.00;98413.09;4203458;28;20109;-74
2022/11/25 04:48:39;;;;;;;10.85;3.45;;;;;;;-1.52;100.00;98427.28;4203467;28;20040;-74
2022/11/25 04:50:39;;;;;;;5.15;3.67;;;;;;;-1.63;100.00;98421.25;4205352;28;20044;-74
2022/11/25 04:52:40;;;;;;;5.35;3.10;;;;;;;-1.69;100.00;98414.31;4203022;28;20082;-74
2022/11/25 04:54:40;;;;;;;5.95;2.88;;;;;;;-1.75;100.00;98418.19;4203519;28;20044;-74
2022/11/25 04:56:40;;;;;;;5.35;3.65;;;;;;;-1.75;100.00;98419.00;4204286;28;20614;-74
2022/11/25 05:00:59;;;;;;;7.60;3.38;;;;;;;-1.63;100.00;98410.41;4203370;28;20047;-74
2022/11/25 05:03:00;;;;;;;6.13;3.35;;;;;;;-1.59;100.00;98405.16;4204623;28;20118;-74
2022/11/25 05:05:00;;;;;;;7.95;3.45;;;;;;;-1.58;100.00;98414.91;4203440;28;20046;-74
2022/11/25 05:07:01;;;;;;;8.15;3.67;;;;;;;-1.60;100.00;98407.06;4202207;28;20036;-74
2022/11/25 05:09:03;;;;;;;6.68;3.83;;;;;;;-1.59;100.00;98416.00;4203274;28;20047;-74
2022/11/25 05:11:03;;;;;;;7.57;3.67;;;;;;;-1.61;100.00;98421.75;4203092;28;20036;-74
2022/11/25 05:13:04;;;;;;;9.90;4.95;;;;;;;-1.63;100.00;98409.59;4203543;28;20455;-74
2022/11/25 05:15:05;;;;;;;7.38;4.35;;;;;;;-1.64;100.00;98410.72;4202608;28;20051;-74
2022/11/25 05:17:06;;;;;;;12.60;4.45;;;;;;;-1.64;100.00;98400.66;4202624;28;20175;-75
2022/11/25 05:19:07;;;;;;;9.45;3.88;;;;;;;-1.64;100.00;98408.78;4204353;28;20403;-75
2022/11/25 05:21:07;;;;;;;17.85;8.68;;;;;;;-1.64;100.00;98384.38;4203812;28;20055;-75
2022/11/25 05:23:07;;;;;;;15.57;10.68;;;;;;;-1.59;100.00;98402.44;4202718;28;20051;-74
2022/11/25 05:25:09;;;;;;;39.08;16.48;;;;;;;-1.55;100.00;98396.13;4204496;28;20054;-74
2022/11/25 05:27:10;;;;;;;20.80;12.27;;;;;;;-1.49;100.00;98404.97;4204637;28;20465;-74
2022/11/25 05:29:11;;;;;;;31.92;15.88;;;;;;;-1.51;100.00;98396.31;4203655;28;20036;-74
2022/11/25 05:31:11;;;;;;;22.00;14.40;;;;;;;-1.49;100.00;98403.09;4199999;28;20730;-74
2022/11/25 05:33:11;;;;;;;28.20;15.68;;;;;;;-1.52;100.00;98400.16;4202978;28;20044;-74
2022/11/25 05:35:12;;;;;;;27.23;13.63;;;;;;;-1.48;100.00;98401.97;4203306;28;20123;-75
2022/11/25 05:37:13;;;;;;;30.73;13.40;;;;;;;-1.47;100.00;98400.88;4203737;28;20048;-74
2022/11/25 05:39:13;;;;;;;24.02;12.98;;;;;;;-1.46;100.00;98407.91;4200614;28;20136;-74
2022/11/25 05:41:14;;;;;;;23.83;13.75;;;;;;;-1.43;100.00;98396.44;4200762;28;20040;-74
2022/11/25 05:43:14;;;;;;;19.58;12.00;;;;;;;-1.39;100.00;98396.66;4200362;28;20716;-74
2022/11/25 05:45:14;;;;;;;16.33;10.15;;;;;;;-1.40;100.00;98407.81;4203577;28;20138;-74
2022/11/25 05:47:15;;;;;;;17.23;9.13;;;;;;;-1.47;100.00;98413.63;4204188;28;20048;-75
2022/11/25 05:49:16;;;;;;;18.02;9.25;;;;;;;-1.52;100.00;98419.94;4203797;28;20403;-75
2022/11/25 05:51:16;;;;;;;11.50;7.22;;;;;;;-1.60;100.00;98419.84;4203855;28;20396;-74
2022/11/25 05:53:16;;;;;;;12.93;6.70;;;;;;;-1.70;100.00;98420.84;4201745;28;20048;-75
2022/11/25 05:55:17;;;;;;;11.73;6.93;;;;;;;-1.80;100.00;98418.31;4200880;28;20051;-75
2022/11/25 05:57:17;;;;;;;13.85;7.40;;;;;;;-1.84;100.00;98420.78;4202543;28;20068;-75
2022/11/25 05:59:17;;;;;;;18.25;11.45;;;;;;;-1.90;100.00;98424.72;4203381;28;20144;-75
2022/11/25 06:01:18;;;;;;;21.15;14.57;;;;;;;-1.93;100.00;98430.72;4203501;28;20067;-75
2022/11/25 06:03:18;;;;;;;24.92;16.50;;;;;;;-1.93;100.00;98422.59;4202145;28;20078;-75
2022/11/25 06:05:19;;;;;;;20.63;12.25;;;;;;;-1.95;100.00;98415.88;4202709;28;20265;-75
2022/11/25 06:07:19;;;;;;;22.45;13.15;;;;;;;-1.95;100.00;98419.38;4202265;28;20125;-74
2022/11/25 06:09:19;;;;;;;24.88;13.55;;;;;;;-1.86;100.00;98433.06;4202900;28;20054;-75
2022/11/25 06:11:20;;;;;;;16.85;12.05;;;;;;;-1.80;100.00;98424.53;4203576;28;20040;-74
2022/11/25 06:13:20;;;;;;;17.98;11.05;;;;;;;-1.75;100.00;98419.00;4203220;28;20411;-75
2022/11/25 06:15:21;;;;;;;16.08;10.77;;;;;;;-1.68;100.00;98421.34;4203962;28;20044;-74
2022/11/25 06:17:21;;;;;;;16.40;9.00;;;;;;;-1.65;100.00;98428.91;4203625;28;20044;-74
2022/11/25 06:19:21;;;;;;;14.65;9.38;;;;;;;-1.65;100.00;98419.94;4203920;28;20043;-74
2022/11/25 06:21:22;;;;;;;16.85;8.68;;;;;;;-1.63;100.00;98426.69;4203927;28;20491;-75
2022/11/25 06:23:23;;;;;;;20.02;9.27;;;;;;;-1.51;100.00;98431.59;4202703;28;20426;-74
2022/11/25 06:25:24;;;;;;;14.32;8.07;;;;;;;-1.55;100.00;98430.59;4202125;28;20040;-74
2022/11/25 06:27:25;;;;;;;18.90;7.65;;;;;;;-1.63;100.00;98436.72;4126887;27;20043;-74
2022/11/25 06:29:25;;;;;;;14.40;7.10;;;;;;;-1.68;100.00;98439.53;4208095;27;20036;-75
2022/11/25 06:31:25;;;;;;;17.65;6.93;;;;;;;-1.77;100.00;98445.63;4203837;28;20040;-74
2022/11/25 06:33:26;;;;;;;14.15;7.18;;;;;;;-1.76;100.00;98447.25;4202295;28;20079;-74
2022/11/25 06:35:26;;;;;;;16.17;7.38;;;;;;;-1.82;100.00;98443.03;4203813;28;20560;-74
2022/11/25 06:37:26;;;;;;;21.88;10.05;;;;;;;-1.87;100.00;98447.72;4203545;28;20129;-74
2022/11/25 06:39:27;;;;;;;22.48;9.73;;;;;;;-1.97;100.00;98448.69;4203597;28;20499;-74
2022/11/25 06:41:27;;;;;;;21.38;9.75;;;;;;;-2.05;100.00;98449.38;4203575;28;21364;-75
2022/11/25 06:43:28;;;;;;;14.35;7.35;;;;;;;-2.09;100.00;98441.00;4202061;28;20032;-74
2022/11/25 06:45:28;;;;;;;10.98;6.60;;;;;;;-2.09;100.00;98442.94;4203500;28;20054;-74
2022/11/25 06:47:29;;;;;;;12.73;7.70;;;;;;;-2.07;100.00;98446.97;4202737;28;20457;-74
2022/11/25 06:49:29;;;;;;;14.90;8.15;;;;;;;-2.01;100.00;98431.41;4203220;28;20206;-75
2022/11/25 06:51:29;;;;;;;17.65;9.63;;;;;;;-2.05;100.00;98433.91;4203922;28;20075;-74
2022/11/25 06:53:31;;;;;;;11.88;7.90;;;;;;;-2.06;100.00;98439.63;4202622;28;20048;-74
2022/11/25 06:55:31;;;;;;;20.92;8.27;;;;;;;-2.02;100.00;98440.66;4203022;28;20515;-74
2022/11/25 06:57:32;;;;;;;20.85;8.73;;;;;;;-2.01;100.00;98439.53;4203536;28;20079;-74
2022/11/25 06:59:32;;;;;;;17.48;8.93;;;;;;;-2.01;100.00;98437.63;4203214;28;20407;-74
2022/11/25 07:01:33;;;;;;;17.33;9.00;;;;;;;-1.97;100.00;98440.56;4203497;28;20524;-75
2022/11/25 07:03:35;;;;;;;32.42;9.52;;;;;;;-1.98;100.00;98438.97;4184147;28;20131;-74
2022/11/25 07:05:35;;;;;;;21.92;9.18;;;;;;;-1.99;100.00;98440.03;4203388;28;20664;-74
2022/11/25 07:07:36;;;;;;;19.13;8.32;;;;;;;-2.02;100.00;98444.16;4202241;28;20036;-74
2022/11/25 07:09:36;;;;;;;16.98;8.45;;;;;;;-1.99;100.00;98448.16;4202853;28;20048;-74
2022/11/25 07:11:38;;;;;;;18.58;8.80;;;;;;;-1.92;100.00;98447.78;4202875;28;20075;-74
2022/11/25 07:13:39;;;;;;;17.90;8.68;;;;;;;-1.85;100.00;98451.75;4202673;28;20058;-74
2022/11/25 07:15:39;;;;;;;20.33;9.18;;;;;;;-1.82;100.00;98434.88;4202894;28;20056;-74
2022/11/25 07:17:39;;;;;;;19.20;9.35;;;;;;;-1.73;100.00;98441.22;4202288;28;20051;-75
2022/11/25 07:19:40;;;;;;;17.15;8.68;;;;;;;-1.66;100.00;98448.97;4203106;28;20423;-74
2022/11/25 07:21:44;;;;;;;14.50;7.90;;;;;;;-1.62;100.00;98449.19;4202491;28;20119;-75
2022/11/25 07:23:45;;;;;;;15.70;8.25;;;;;;;-1.61;100.00;98445.38;4201497;28;20036;-75
2022/11/25 07:25:45;;;;;;;15.93;8.50;;;;;;;-1.59;100.00;98454.81;4200277;28;20139;-74
2022/11/25 07:27:46;;;;;;;12.40;8.00;;;;;;;-1.54;100.00;98453.91;4201115;28;20099;-74
2022/11/25 07:29:48;;;;;;;15.55;8.15;;;;;;;-1.51;100.00;98453.31;4202605;28;20583;-74
2022/11/25 07:31:48;;;;;;;13.00;7.40;;;;;;;-1.48;100.00;98452.72;4202060;28;20221;-74
2022/11/25 07:33:57;;;;;;;14.27;7.32;;;;;;;-1.42;100.00;98449.59;4201660;28;20040;-75
2022/11/25 07:36:03;;;;;;;14.43;7.55;;;;;;;-1.29;100.00;98461.59;4202425;28;20121;-74
2022/11/25 07:38:03;;;;;;;14.77;7.15;;;;;;;-1.18;100.00;98454.03;4202048;28;20131;-74
2022/11/25 07:40:05;;;;;;;14.82;5.82;;;;;;;-1.09;100.00;98448.72;4202680;28;20437;-74
2022/11/25 07:42:05;;;;;;;10.68;5.50;;;;;;;-0.99;100.00;98456.66;4202493;28;20509;-74
2022/11/25 07:44:08;;;;;;;11.45;5.63;;;;;;;-0.89;100.00;98451.81;4202477;28;20036;-74
2022/11/25 07:46:13;;;;;;;10.07;5.50;;;;;;;-0.80;100.00;98460.06;4201993;28;20384;-75
2022/11/25 07:48:13;;;;;;;13.00;5.65;;;;;;;-0.73;100.00;98457.75;4203111;28;20036;-74
2022/11/25 07:50:13;;;;;;;10.63;6.00;;;;;;;-0.67;100.00;98458.41;4202529;28;20494;-75
2022/11/25 07:52:14;;;;;;;12.18;5.72;;;;;;;-0.63;100.00;98460.22;4202416;28;20036;-74
2022/11/25 07:54:14;;;;;;;12.77;6.57;;;;;;;-0.55;100.00;98466.06;4183737;28;20050;-74
2022/11/25 07:56:16;;;;;;;12.55;5.68;;;;;;;-0.53;100.00;98461.13;4202180;28;20040;-74
2022/11/25 07:58:16;;;;;;;12.38;5.88;;;;;;;-0.48;100.00;98461.81;4202387;28;20067;-74
2022/11/25 08:00:17;;;;;;;14.32;6.35;;;;;;;-0.43;100.00;98458.16;4201748;28;20510;-74
2022/11/25 08:02:17;;;;;;;14.38;6.88;;;;;;;-0.40;100.00;98458.38;4201998;28;20530;-75
2022/11/25 08:04:18;;;;;;;10.23;6.60;;;;;;;-0.35;100.00;98457.44;4203005;28;20023;-74
2022/11/25 08:06:21;;;;;;;18.60;11.10;;;;;;;-0.29;100.00;98456.22;4201811;28;20044;-74
2022/11/25 08:08:21;;;;;;;16.40;9.40;;;;;;;-0.20;100.00;98457.09;4201103;28;20039;-74
2022/11/25 08:10:22;;;;;;;14.65;9.70;;;;;;;-0.14;100.00;98463.22;4202220;28;20354;-74
2022/11/25 08:12:22;;;;;;;10.88;7.68;;;;;;;-0.14;100.00;98464.03;4200575;28;20063;-74
2022/11/25 08:14:22;;;;;;;15.05;7.20;;;;;;;-0.10;100.00;98464.19;4200467;28;20043;-74
2022/11/25 08:16:26;;;;;;;10.60;6.53;;;;;;;-0.07;100.00;98461.69;4201407;28;20436;-75
2022/11/25 08:18:27;;;;;;;10.30;6.18;;;;;;;-0.04;100.00;98471.13;4200869;28;20055;-74
2022/11/25 08:20:28;;;;;;;12.43;6.90;;;;;;;0.01;100.00;98468.31;4202439;28;20476;-74
2022/11/25 08:22:28;;;;;;;10.32;6.57;;;;;;;0.06;100.00;98470.06;4201748;28;20043;-74
2022/11/25 08:24:28;;;;;;;8.75;6.03;;;;;;;0.10;100.00;98463.72;4201808;28;20155;-74
2022/11/25 08:26:33;;;;;;;11.27;6.13;;;;;;;0.24;100.00;98463.63;4202423;28;20040;-74
2022/11/25 08:28:35;;;;;;;10.85;5.95;;;;;;;0.30;100.00;98459.69;4202116;28;20561;-74
2022/11/25 08:30:35;;;;;;;9.68;5.40;;;;;;;0.37;100.00;98460.03;4202012;28;20409;-75
2022/11/25 08:32:38;;;;;;;10.40;5.80;;;;;;;0.39;100.00;98451.56;4198601;28;20055;-74
2022/11/25 08:34:39;;;;;;;9.85;5.53;;;;;;;0.41;100.00;98465.66;4199165;28;20040;-74
2022/11/25 08:36:39;;;;;;;9.88;4.82;;;;;;;0.43;100.00;98466.16;4198428;28;20387;-74
2022/11/25 08:38:40;;;;;;;12.35;5.80;;;;;;;0.47;100.00;98469.84;4198375;28;20092;-74
2022/11/25 08:40:42;;;;;;;8.95;5.30;;;;;;;0.50;100.00;98466.53;4193286;28;20108;-74
2022/11/25 08:42:43;;;;;;;8.88;5.47;;;;;;;0.52;100.00;98475.19;4196102;28;20379;-74
2022/11/25 08:44:43;;;;;;;9.88;5.43;;;;;;;0.51;100.00;98479.81;4196759;28;20333;-74
2022/11/25 08:46:43;;;;;;;12.40;6.10;;;;;;;0.59;100.00;98486.44;4194298;28;20151;-74
2022/11/25 08:48:44;;;;;;;21.90;8.63;;;;;;;0.65;100.00;98485.16;4194768;28;20123;-75
2022/11/25 08:50:48;;;;;;;19.90;9.27;;;;;;;0.79;100.00;98494.06;4196094;28;20362;-75
2022/11/25 08:52:48;;;;;;;16.83;8.20;;;;;;;0.90;100.00;98493.78;4198965;28;20040;-75
2022/11/25 08:54:49;;;;;;;16.10;8.50;;;;;;;0.94;100.00;98484.66;4200130;28;20055;-75
2022/11/25 08:56:49;;;;;;;13.57;8.02;;;;;;;0.98;100.00;98484.84;4198237;28;20127;-75
2022/11/25 08:58:49;;;;;;;16.35;7.70;;;;;;;0.99;100.00;98486.44;4193438;28;20663;-75
2022/11/25 09:00:50;;;;;;;16.20;8.98;;;;;;;0.96;100.00;98485.16;4195804;28;20385;-75
2022/11/25 09:02:50;;;;;;;20.70;11.32;;;;;;;1.06;100.00;98494.97;4194947;28;20083;-75
2022/11/25 09:04:50;;;;;;;21.13;11.15;;;;;;;1.18;100.00;98487.00;4194955;28;20580;-75
2022/11/25 09:06:51;;;;;;;23.75;13.10;;;;;;;1.25;100.00;98498.25;4195509;28;20044;-75
2022/11/25 09:08:57;;;;;;;19.33;10.77;;;;;;;1.35;100.00;98505.31;4198189;28;20423;-75
2022/11/25 09:10:58;;;;;;;15.90;7.07;;;;;;;1.39;100.00;98500.84;4196675;28;20048;-75
2022/11/25 09:12:59;;;;;;;20.58;8.80;;;;;;;1.50;100.00;98506.81;4196082;28;20043;-75
2022/11/25 09:15:00;;;;;;;18.13;7.40;;;;;;;1.48;100.00;98498.13;4195630;28;20404;-75
2022/11/25 09:17:00;;;;;;;14.25;7.85;;;;;;;1.48;100.00;98504.38;4197227;28;20127;-75
2022/11/25 09:19:01;;;;;;;19.42;8.30;;;;;;;1.51;100.00;98503.75;4199020;28;20207;-75
2022/11/25 09:21:08;;;;;;;16.08;7.32;;;;;;;1.48;100.00;98496.19;4196208;28;20032;-75
2022/11/25 09:23:09;;;;;;;17.30;8.77;;;;;;;1.52;100.00;98499.13;4197477;28;20091;-75
2022/11/25 09:25:09;;;;;;;44.90;22.20;;;;;;;1.53;100.00;98503.44;4194554;28;20368;-75
2022/11/25 09:27:09;;;;;;;23.85;13.82;;;;;;;1.49;100.00;98495.09;4197305;28;20345;-75
2022/11/25 09:29:12;;;;;;;25.27;11.68;;;;;;;1.54;100.00;98505.03;4196352;28;20059;-76